OINR  Ramsar Airport

Add Bookmark

Iran

Status IATA
Operational RZR
Latitude Longitude
36° 54' 35" N 50° 40' 46" E
36.909901 50.679600
Local (DST + 5) UTC (GMT + 4)
Oct 1, 2014 07:28 Oct 1, 2014 03:58
Sunrise-Sunset Local UTC
Begin Civil Twilight 05:35 02:05
Sunrise 06:01 02:31
Sunset 05:52 14:22
End Civil Twilight 06:18 14:48

Current Weather

METAR Observed MVFR
OINR 010300Z 00000KT 9999 FEW025CB BKN030 BKN090 18/17 Q1018 Wed, Oct 1, 2014 @ 03:00 UTC
(58 Minutes ago)
Marginal Visual Flight Rules
Wind Visibility Clouds Conditions
Calm 10 km or more
  • Few at 2,500' AGL
  • Broken at 3,000' AGL
  • Broken at 9,000' AGL
  • No significant weather
Temperatures Readings Precipitation
Current Temp 18°C (64°F)
Dewpoint 17°C (63°F)
Humidity 94%
Altimeter 30.06"Hg
Sea Level Pressure 1018mb
None Recorded

Additional weather within a 92.6km radius of OINR

Map ICAO Location
OINN 75km E (111°)

24 Hour Weather History

Loading
-

24 Hour Weather Graphs

Loading
-

CheckWX.com is intended as a tool to help pilots better visualize weather data. It is not intended as a substitute for an official weather briefing obtained from a Flight Service Station. CheckWX.com does not meet the FAA requirements for an official pre-flight weather briefing. Therefore, it's important that pilots still call and obtain an official FSS pre-flight weather briefing.